Merced Regional Macready Field
KMCE : now visible

Airfield :











YOU CAN JOIN US ON...

 
LOGIN :

Register | Disclaimer

   EN    FR    IT 

 









Legend :    VFR   Marginal VFR   IFR   Intensive IFR   Very Intensive IFR
Visi :
Ceiling :
>= 8 km
>= 3000ft
5 to 8 km
1000 to 3000 ft
1500m to 5 km
500 to 1000 ft
800 to 1500m
200 to 500 ft
< 800m
< 200 ft
Symbols :   Thunderstorms  Fog  Heavy snow  Heavy precipitations  Wind > 20 kt







- Airport Elevation : 155 ft
- IATA code : MCE


KMCE - Merced Regional Macready Field

CURRENT METAR :
  • 222353Z AUTO 30008KT 10SM CLR 35/17 A2966 RMK AO2 SLP043 T03500172 10356 20272 56024

EXPIRED METARs :
  • 222253Z AUTO 30008KT 260V330 10SM CLR 35/17 A2968 RMK AO2 SLP049 T03500167
  • 222153Z AUTO 30007KT 10SM CLR 34/16 A2971 RMK AO2 SLP058 T03440161
  • 222053Z AUTO 31006KT 10SM CLR 33/17 A2973 RMK AO2 SLP067 T03330167 58015

TAF KMCE
Valid from the 23 at 00:00 until the 24 at 00:00 UTC


222320Z 2300/2324 31007KT P6SM SKC
No reported NOTAMs for that airfield.



MET'MAP, your aeronautical weather chart ! - Copyright ORBIFLY December 2007 - Disclaimer

ORBIFLY MET'MAP TEAM :

Programming & Development : Alexandra Zaïnal
Concept & Development : Baudouin d'Aumeries
Co-Development & Prog : Marc-Olivier Méhu
Technical & hardware support : Manuel Goepfert

Contact : metmap@orbifly.com




SOURCES & CREDITS :

   NOAA       Earth
Advisory